createdAt,value
2023-03-16T00:01:06.716Z,0.11
2023-03-16T00:03:33.316Z,0.12
2023-03-16T00:06:00.219Z,0.03
2023-03-16T00:08:26.725Z,-0.02
2023-03-16T00:10:54.261Z,-0.09
2023-03-16T00:13:23.912Z,-0.10
2023-03-16T00:16:08.469Z,-0.10
2023-03-16T00:18:39.072Z,-0.14
2023-03-16T00:21:06.528Z,-0.08
2023-03-16T00:23:35.714Z,-0.13
2023-03-16T00:26:04.084Z,-0.30
2023-03-16T00:28:35.160Z,-0.39
2023-03-16T00:31:02.662Z,-0.38
2023-03-16T00:33:29.423Z,-0.36
2023-03-16T00:36:02.705Z,-0.45
2023-03-16T00:40:40.358Z,-0.49
2023-03-16T00:43:06.836Z,-0.60
2023-03-16T00:45:33.413Z,-0.66
2023-03-16T00:50:39.681Z,-0.69
2023-03-16T00:53:06.393Z,-0.77
2023-03-16T00:55:33.532Z,-0.79
2023-03-16T00:58:00.071Z,-0.76
2023-03-16T01:00:28.791Z,-0.83
2023-03-16T01:02:55.589Z,-0.96
2023-03-16T01:05:22.715Z,-0.94
2023-03-16T01:07:49.219Z,-0.89
2023-03-16T01:10:16.177Z,-0.85
2023-03-16T01:12:45.271Z,-0.92
2023-03-16T01:15:12.047Z,-0.90
2023-03-16T01:17:38.569Z,-0.86
2023-03-16T01:20:08.357Z,-0.92
2023-03-16T01:26:45.882Z,-0.95
2023-03-16T01:32:44.013Z,-0.90
2023-03-16T01:35:10.650Z,-0.88
2023-03-16T01:37:37.427Z,-0.95
2023-03-16T01:40:06.550Z,-0.97
2023-03-16T01:42:33.094Z,-0.95
2023-03-16T01:45:05.749Z,-0.99
2023-03-16T01:47:38.507Z,-1.02
2023-03-16T01:50:07.608Z,-0.96
2023-03-16T01:54:57.335Z,-0.90
2023-03-16T02:00:11.046Z,-0.90
2023-03-16T02:02:39.985Z,-0.97
2023-03-16T02:05:09.691Z,-0.98
2023-03-16T02:07:40.359Z,-0.88
2023-03-16T02:10:07.557Z,-0.92
2023-03-16T02:12:34.122Z,-0.90
2023-03-16T02:15:00.648Z,-0.85
2023-03-16T02:17:28.484Z,-0.89
2023-03-16T02:19:58.006Z,-0.89
2023-03-16T02:22:25.152Z,-0.87
2023-03-16T02:24:52.596Z,-0.96
2023-03-16T02:27:45.745Z,-0.96
2023-03-16T02:30:51.460Z,-1.04
2023-03-16T02:33:18.677Z,-1.01
2023-03-16T02:35:45.188Z,-1.00
2023-03-16T02:38:11.749Z,-0.98
2023-03-16T02:40:38.871Z,-0.99
2023-03-16T02:43:07.500Z,-0.97
2023-03-16T02:45:39.836Z,-0.96
2023-03-16T02:48:09.550Z,-0.83
2023-03-16T02:50:37.098Z,-0.95
2023-03-16T02:53:03.657Z,-1.09
2023-03-16T02:55:30.149Z,-1.13
2023-03-16T02:57:56.617Z,-1.15
2023-03-16T03:00:23.295Z,-1.17
2023-03-16T03:02:49.864Z,-1.20
2023-03-16T03:05:16.530Z,-1.22
2023-03-16T03:07:43.210Z,-1.22
2023-03-16T03:10:10.089Z,-1.37
2023-03-16T03:12:36.662Z,-1.44
2023-03-16T03:15:04.008Z,-1.47
2023-03-16T03:17:30.585Z,-1.48
2023-03-16T03:22:45.199Z,-1.45
2023-03-16T03:25:14.197Z,-1.40
2023-03-16T03:27:42.614Z,-1.43
2023-03-16T03:30:13.526Z,-1.46
2023-03-16T03:32:40.534Z,-1.43
2023-03-16T03:35:07.692Z,-1.41
2023-03-16T03:37:34.264Z,-1.47
2023-03-16T03:40:00.780Z,-1.50
2023-03-16T03:42:27.283Z,-1.46
2023-03-16T03:44:54.019Z,-1.49
2023-03-16T03:47:20.788Z,-1.56
2023-03-16T03:49:47.311Z,-1.58
2023-03-16T03:52:13.834Z,-1.63
2023-03-16T03:54:40.371Z,-1.61
2023-03-16T03:57:06.910Z,-1.60
2023-03-16T04:02:13.799Z,-1.53
2023-03-16T04:04:41.244Z,-1.47
2023-03-16T04:07:07.843Z,-1.46
2023-03-16T04:09:34.385Z,-1.43
2023-03-16T04:12:01.880Z,-1.42
2023-03-16T04:14:28.947Z,-1.46
2023-03-16T04:16:55.872Z,-1.65
2023-03-16T04:19:23.210Z,-1.68
2023-03-16T04:21:50.203Z,-1.79
2023-03-16T04:24:16.907Z,-1.84
2023-03-16T04:26:46.329Z,-1.85
2023-03-16T04:29:14.506Z,-1.88
2023-03-16T04:31:42.512Z,-1.91
2023-03-16T04:34:09.050Z,-1.95
2023-03-16T04:36:35.582Z,-1.96
2023-03-16T04:39:02.369Z,-1.94
2023-03-16T04:44:09.433Z,-2.07
2023-03-16T04:46:36.198Z,-2.08
2023-03-16T04:49:02.756Z,-2.03
2023-03-16T04:51:29.287Z,-2.07
2023-03-16T04:53:55.935Z,-2.06
2023-03-16T04:57:10.756Z,-2.14
2023-03-16T04:59:37.296Z,-2.16
2023-03-16T05:02:04.150Z,-2.26
2023-03-16T05:04:30.674Z,-2.23
2023-03-16T05:06:57.217Z,-2.35
2023-03-16T05:09:23.714Z,-2.37
2023-03-16T05:11:50.290Z,-2.32
2023-03-16T05:14:31.394Z,-2.30
2023-03-16T05:16:57.956Z,-2.28
2023-03-16T05:19:24.745Z,-2.23
2023-03-16T05:21:51.283Z,-2.15
2023-03-16T05:24:18.177Z,-2.09
2023-03-16T05:26:44.713Z,-2.05
2023-03-16T05:31:51.568Z,-2.06
2023-03-16T05:34:18.075Z,-1.96
2023-03-16T05:36:45.199Z,-1.92
2023-03-16T05:39:11.813Z,-1.93
2023-03-16T05:41:38.386Z,-1.93
2023-03-16T05:44:04.898Z,-1.89
2023-03-16T05:46:31.506Z,-1.82
2023-03-16T05:48:58.056Z,-1.75
2023-03-16T05:51:26.647Z,-1.71
2023-03-16T05:53:56.675Z,-1.72
2023-03-16T05:56:24.390Z,-1.77
2023-03-16T05:58:51.974Z,-1.76
2023-03-16T06:01:20.254Z,-1.74
2023-03-16T06:03:47.548Z,-1.74
2023-03-16T06:06:14.107Z,-1.70
2023-03-16T06:08:40.832Z,-1.74
2023-03-16T06:11:07.917Z,-1.73
2023-03-16T06:13:34.543Z,-1.58
2023-03-16T06:16:01.715Z,-1.02
2023-03-16T06:18:28.302Z,-0.54
2023-03-16T06:20:54.823Z,-0.11
2023-03-16T06:23:21.878Z,0.50
2023-03-16T06:25:48.743Z,1.04
2023-03-16T06:28:15.246Z,1.44
2023-03-16T06:30:42.039Z,1.73
2023-03-16T06:33:08.605Z,1.87
2023-03-16T06:35:35.165Z,1.77
2023-03-16T06:38:01.677Z,1.82
2023-03-16T06:40:28.429Z,2.12
2023-03-16T06:42:55.096Z,2.44
2023-03-16T06:45:22.370Z,2.13
2023-03-16T06:47:49.308Z,2.58
2023-03-16T06:50:15.941Z,2.86
2023-03-16T06:52:42.605Z,2.93
2023-03-16T06:55:09.596Z,2.98
2023-03-16T06:57:36.108Z,2.92
2023-03-16T07:00:04.370Z,2.83
2023-03-16T07:02:32.324Z,2.33
2023-03-16T07:04:58.805Z,2.33
2023-03-16T07:07:27.311Z,2.51
2023-03-16T07:09:53.804Z,2.73
2023-03-16T07:12:20.411Z,2.92
2023-03-16T07:14:50.757Z,3.19
2023-03-16T07:17:18.432Z,3.31
2023-03-16T07:19:44.924Z,3.56
2023-03-16T07:22:11.576Z,3.71
2023-03-16T07:24:38.249Z,3.92
2023-03-16T07:27:04.808Z,4.09
2023-03-16T07:29:31.405Z,4.32
2023-03-16T07:31:57.985Z,4.54
2023-03-16T07:34:24.614Z,4.51
2023-03-16T07:36:52.956Z,4.59
2023-03-16T07:39:19.548Z,4.69
2023-03-16T07:41:46.131Z,4.94
2023-03-16T07:44:12.740Z,4.95
2023-03-16T07:46:39.261Z,4.91
2023-03-16T07:49:05.884Z,5.26
2023-03-16T07:51:32.458Z,5.54
2023-03-16T07:53:58.945Z,5.72
2023-03-16T07:56:25.490Z,5.84
2023-03-16T07:58:52.025Z,6.19
2023-03-16T08:01:18.584Z,6.21
2023-03-16T08:03:45.157Z,6.14
2023-03-16T08:06:12.227Z,6.14
2023-03-16T08:08:38.803Z,6.07
2023-03-16T08:11:05.418Z,6.16
2023-03-16T08:13:31.957Z,6.53
2023-03-16T08:15:58.762Z,6.54
2023-03-16T08:18:26.050Z,6.58
2023-03-16T08:20:52.696Z,6.51
2023-03-16T08:23:37.644Z,6.49
2023-03-16T08:26:08.803Z,6.78
2023-03-16T08:28:52.116Z,6.87
2023-03-16T08:31:19.460Z,6.81
2023-03-16T08:33:49.797Z,6.86
2023-03-16T08:36:18.046Z,7.14
2023-03-16T08:38:56.635Z,7.09
2023-03-16T08:41:33.010Z,7.15
2023-03-16T08:44:00.035Z,7.35
2023-03-16T08:46:26.760Z,7.20
2023-03-16T08:48:55.882Z,7.42
2023-03-16T08:51:22.461Z,7.60
2023-03-16T08:53:48.965Z,7.18
2023-03-16T08:56:15.569Z,7.23
2023-03-16T08:58:45.770Z,7.44
2023-03-16T09:01:13.732Z,7.77
2023-03-16T09:03:46.323Z,7.74
2023-03-16T09:06:14.443Z,6.76
2023-03-16T09:08:41.615Z,6.61
2023-03-16T09:12:38.008Z,6.81
2023-03-16T09:15:05.371Z,7.22
2023-03-16T09:17:32.020Z,7.35
2023-03-16T09:20:05.541Z,7.30
2023-03-16T09:22:38.813Z,7.48
2023-03-16T09:25:06.785Z,7.47
2023-03-16T09:27:33.685Z,7.59
2023-03-16T09:30:01.852Z,8.05
2023-03-16T09:34:49.330Z,7.76
2023-03-16T09:37:16.400Z,7.72
2023-03-16T09:39:43.438Z,7.44
2023-03-16T09:42:10.174Z,7.70
2023-03-16T09:44:40.000Z,7.79
2023-03-16T09:47:08.959Z,7.74
2023-03-16T09:49:38.070Z,7.39
2023-03-16T09:52:17.147Z,7.24
2023-03-16T09:54:51.284Z,7.18
2023-03-16T09:57:31.624Z,7.31
2023-03-16T10:00:02.084Z,7.80
2023-03-16T10:02:40.702Z,7.86
2023-03-16T10:05:07.237Z,7.65
2023-03-16T10:07:33.746Z,7.96
2023-03-16T10:10:15.937Z,7.86
2023-03-16T10:12:45.328Z,7.49
2023-03-16T10:15:16.880Z,7.77
2023-03-16T10:17:46.733Z,7.97
2023-03-16T10:20:18.429Z,8.07
2023-03-16T10:22:46.764Z,8.50
2023-03-16T10:25:23.406Z,9.09
2023-03-16T10:29:01.236Z,9.12
2023-03-16T10:31:28.407Z,9.18
2023-03-16T10:33:58.525Z,9.31
2023-03-16T10:39:12.838Z,8.94
2023-03-16T10:41:43.801Z,8.47
2023-03-16T10:44:13.281Z,8.64
2023-03-16T10:46:43.257Z,8.82
2023-03-16T10:49:19.772Z,8.66
2023-03-16T10:51:46.710Z,8.67
2023-03-16T10:54:16.061Z,9.27
2023-03-16T10:56:42.909Z,9.12
2023-03-16T10:59:15.375Z,9.30
2023-03-16T11:01:44.455Z,9.32
2023-03-16T11:04:14.049Z,9.55
2023-03-16T11:06:47.674Z,9.84
2023-03-16T11:09:19.730Z,9.26
2023-03-16T11:11:49.900Z,8.95
2023-03-16T11:14:19.685Z,8.96
2023-03-16T11:19:19.061Z,8.96
2023-03-16T11:21:51.672Z,8.71
2023-03-16T11:24:23.851Z,8.85
2023-03-16T11:26:54.531Z,9.20
2023-03-16T11:29:21.281Z,9.39
2023-03-16T11:33:09.855Z,9.06
2023-03-16T11:35:58.135Z,9.23
2023-03-16T11:38:44.248Z,9.32
2023-03-16T11:41:21.503Z,9.08
2023-03-16T11:43:48.058Z,9.23
2023-03-16T11:46:15.588Z,9.36
2023-03-16T11:48:51.557Z,8.65
2023-03-16T11:51:24.220Z,8.87
2023-03-16T11:54:02.762Z,8.79
2023-03-16T11:56:39.445Z,8.56
2023-03-16T11:59:06.326Z,8.52
2023-03-16T12:01:54.388Z,7.90
2023-03-16T12:07:26.000Z,8.73
2023-03-16T12:09:55.981Z,8.97
2023-03-16T12:12:27.083Z,9.18
2023-03-16T12:15:05.732Z,8.85
2023-03-16T12:17:35.233Z,9.04
2023-03-16T12:20:14.255Z,8.77
2023-03-16T12:22:46.203Z,8.57
2023-03-16T12:25:17.282Z,8.54
2023-03-16T12:27:44.877Z,8.50
2023-03-16T12:30:30.387Z,8.48
2023-03-16T12:33:00.870Z,8.58
2023-03-16T12:35:34.091Z,8.74
2023-03-16T12:38:20.977Z,8.71
2023-03-16T12:40:47.461Z,8.66
2023-03-16T12:43:14.684Z,8.71
2023-03-16T12:45:42.136Z,8.49
2023-03-16T12:48:30.034Z,8.23
2023-03-16T12:51:00.933Z,8.05
2023-03-16T12:53:33.679Z,8.23
2023-03-16T12:56:05.315Z,8.20
2023-03-16T12:58:33.054Z,8.20
2023-03-16T13:01:00.218Z,7.94
2023-03-16T13:03:27.901Z,7.92
2023-03-16T13:05:56.203Z,8.01
2023-03-16T13:08:23.547Z,7.97
2023-03-16T13:11:00.478Z,7.87
2023-03-16T13:13:28.484Z,7.83
2023-03-16T13:16:07.055Z,7.86
2023-03-16T13:18:45.317Z,7.82
2023-03-16T13:21:16.957Z,7.63
2023-03-16T13:23:49.760Z,7.57
2023-03-16T13:26:17.829Z,7.63
2023-03-16T13:28:46.124Z,7.40
2023-03-16T13:31:39.346Z,7.37
2023-03-16T13:34:07.675Z,7.48
2023-03-16T13:36:34.962Z,7.52
2023-03-16T13:39:22.411Z,7.44
2023-03-16T13:42:04.927Z,7.43
2023-03-16T13:44:32.161Z,7.37
2023-03-16T13:47:03.399Z,7.24
2023-03-16T13:49:30.057Z,7.22
2023-03-16T13:51:57.179Z,7.26
2023-03-16T13:54:26.405Z,7.19
2023-03-16T13:56:53.379Z,7.16
2023-03-16T13:59:21.579Z,7.14
2023-03-16T14:01:49.217Z,7.17
2023-03-16T14:04:18.903Z,7.31
2023-03-16T14:06:52.879Z,7.17
2023-03-16T14:09:21.911Z,6.93
2023-03-16T14:11:51.439Z,6.81
2023-03-16T14:14:23.995Z,6.80
2023-03-16T14:16:51.306Z,6.82
2023-03-16T14:19:20.221Z,6.88
2023-03-16T14:21:46.935Z,6.96
2023-03-16T14:24:32.360Z,6.88
2023-03-16T14:27:09.027Z,6.78
2023-03-16T14:29:35.830Z,6.66
2023-03-16T14:32:02.356Z,6.62
2023-03-16T14:34:36.107Z,6.51
2023-03-16T14:37:10.103Z,6.48
2023-03-16T14:42:27.549Z,6.56
2023-03-16T14:44:54.433Z,6.50
2023-03-16T14:47:23.117Z,6.45
2023-03-16T14:49:49.669Z,6.38
2023-03-16T14:52:27.455Z,6.29
2023-03-16T14:54:55.385Z,6.26
2023-03-16T14:57:22.350Z,6.20
2023-03-16T14:59:48.858Z,6.15
2023-03-16T15:02:18.415Z,6.16
2023-03-16T15:04:45.829Z,6.18
2023-03-16T15:07:25.873Z,6.13
2023-03-16T15:09:53.926Z,5.99
2023-03-16T15:12:21.742Z,5.86
2023-03-16T15:15:07.056Z,5.79
2023-03-16T15:17:33.645Z,5.84
2023-03-16T15:20:00.215Z,5.79
2023-03-16T15:22:28.168Z,5.77
2023-03-16T15:27:35.813Z,5.72
2023-03-16T15:30:02.549Z,5.62
2023-03-16T15:32:29.176Z,5.62
2023-03-16T15:34:55.885Z,5.52
2023-03-16T15:37:24.453Z,5.42
2023-03-16T15:39:51.517Z,5.21
2023-03-16T15:42:18.940Z,5.09
2023-03-16T15:44:46.109Z,4.99
2023-03-16T15:47:13.283Z,4.92
2023-03-16T15:49:47.164Z,4.87
2023-03-16T15:52:21.783Z,4.89
2023-03-16T15:54:48.653Z,4.91
2023-03-16T15:57:15.157Z,4.84
2023-03-16T15:59:41.869Z,4.69
2023-03-16T16:02:28.203Z,4.59
2023-03-16T16:04:54.761Z,4.43
2023-03-16T16:07:21.412Z,4.34
2023-03-16T16:09:48.297Z,4.24
2023-03-16T16:12:16.256Z,4.14
2023-03-16T16:14:42.793Z,4.14
2023-03-16T16:17:15.741Z,4.15
2023-03-16T16:19:42.286Z,4.13
2023-03-16T16:22:11.917Z,4.01
2023-03-16T16:24:38.811Z,3.91
2023-03-16T16:27:06.683Z,3.79
2023-03-16T16:29:34.011Z,3.79
2023-03-16T16:32:00.932Z,3.74
2023-03-16T16:34:28.114Z,3.63
2023-03-16T16:36:55.192Z,3.56
2023-03-16T16:39:22.121Z,3.51
2023-03-16T16:41:50.087Z,3.49
2023-03-16T16:44:21.490Z,3.43
2023-03-16T16:46:49.250Z,3.36
2023-03-16T16:49:19.595Z,3.33
2023-03-16T16:51:46.311Z,3.32
2023-03-16T16:54:19.984Z,3.29
2023-03-16T16:56:48.182Z,3.17
2023-03-16T16:59:19.306Z,3.11
2023-03-16T17:01:47.427Z,3.09
2023-03-16T17:06:30.601Z,2.94
2023-03-16T17:08:57.580Z,2.80
2023-03-16T17:11:24.072Z,2.59
2023-03-16T17:13:52.795Z,2.46
2023-03-16T17:16:22.075Z,2.36
2023-03-16T17:21:30.114Z,2.35
2023-03-16T17:23:57.455Z,2.28
2023-03-16T17:26:35.750Z,2.24
2023-03-16T17:29:10.365Z,2.16
2023-03-16T17:31:39.081Z,2.14
2023-03-16T17:34:16.502Z,2.14
2023-03-16T17:36:43.313Z,2.06
2023-03-16T17:39:21.137Z,1.88
2023-03-16T17:41:54.614Z,1.78
2023-03-16T17:44:21.678Z,1.77
2023-03-16T17:46:48.674Z,1.76
2023-03-16T17:49:17.785Z,1.73
2023-03-16T17:51:44.815Z,1.69
2023-03-16T17:54:11.819Z,1.66
2023-03-16T17:56:40.341Z,1.59
2023-03-16T17:59:11.342Z,1.60
2023-03-16T18:01:39.193Z,1.54
2023-03-16T18:04:06.849Z,1.47
2023-03-16T18:06:33.411Z,1.41
2023-03-16T18:08:59.952Z,1.35
2023-03-16T18:11:39.882Z,1.31
2023-03-16T18:14:07.468Z,1.27
2023-03-16T18:18:44.136Z,1.20
2023-03-16T18:21:21.757Z,1.11
2023-03-16T18:24:02.862Z,1.05
2023-03-16T18:26:29.724Z,0.98
2023-03-16T18:28:56.482Z,0.90
2023-03-16T18:31:26.364Z,0.88
2023-03-16T18:33:58.077Z,0.87
2023-03-16T18:36:29.716Z,0.76
2023-03-16T18:38:58.076Z,0.72
2023-03-16T18:41:25.741Z,0.67
2023-03-16T18:43:53.677Z,0.62
2023-03-16T18:46:23.170Z,0.61
2023-03-16T18:48:50.644Z,0.57
2023-03-16T18:53:57.668Z,0.45
2023-03-16T18:56:25.828Z,0.41
2023-03-16T19:00:37.645Z,0.32
2023-03-16T19:03:04.912Z,0.28
2023-03-16T19:05:35.858Z,0.26
2023-03-16T19:06:59.228Z,0.25
2023-03-16T19:09:31.254Z,0.19
2023-03-16T19:11:59.688Z,0.13
2023-03-16T19:14:28.339Z,0.09
2023-03-16T19:16:55.307Z,0.03
2023-03-16T19:19:22.740Z,-0.02
2023-03-16T19:21:50.471Z,-0.07
2023-03-16T19:24:37.565Z,-0.10
2023-03-16T19:27:06.312Z,-0.16
2023-03-16T19:32:17.236Z,-0.26
2023-03-16T19:34:43.828Z,-0.28
2023-03-16T19:37:18.172Z,-0.28
2023-03-16T19:39:45.056Z,-0.26
2023-03-16T19:42:30.085Z,-0.30
2023-03-16T19:44:56.734Z,-0.36
2023-03-16T19:47:41.338Z,-0.40
2023-03-16T19:50:15.909Z,-0.41
2023-03-16T19:52:42.795Z,-0.49
2023-03-16T19:55:13.510Z,-0.47
2023-03-16T19:57:40.125Z,-0.45
2023-03-16T20:02:47.510Z,-0.56
2023-03-16T20:05:21.854Z,-0.61
2023-03-16T20:07:48.762Z,-0.64
2023-03-16T20:13:00.381Z,-0.82
2023-03-16T20:15:30.481Z,-0.89
2023-03-16T20:17:57.345Z,-0.98
2023-03-16T20:20:28.175Z,-1.01
2023-03-16T20:22:56.785Z,-1.04
2023-03-16T20:25:24.803Z,-1.03
2023-03-16T20:27:54.808Z,-1.10
2023-03-16T20:30:22.215Z,-1.17
2023-03-16T20:32:48.737Z,-1.27
2023-03-16T20:35:18.799Z,-1.33
2023-03-16T20:37:45.848Z,-1.34
2023-03-16T20:40:12.889Z,-1.36
2023-03-16T20:42:39.577Z,-1.42
2023-03-16T20:45:23.674Z,-1.45
2023-03-16T20:47:51.780Z,-1.49
2023-03-16T20:50:23.530Z,-1.54
2023-03-16T20:52:50.600Z,-1.56
2023-03-16T20:55:18.216Z,-1.56
2023-03-16T20:57:44.830Z,-1.55
2023-03-16T21:00:19.533Z,-1.55
2023-03-16T21:02:47.336Z,-1.54
2023-03-16T21:07:53.297Z,-1.48
2023-03-16T21:10:24.333Z,-1.49
2023-03-16T21:12:54.728Z,-1.53
2023-03-16T21:15:25.601Z,-1.52
2023-03-16T21:17:55.372Z,-1.55
2023-03-16T21:20:22.449Z,-1.53
2023-03-16T21:22:49.000Z,-1.56
2023-03-16T21:25:19.870Z,-1.57
2023-03-16T21:27:46.639Z,-1.60
2023-03-16T21:30:25.058Z,-1.61
2023-03-16T21:32:52.391Z,-1.56
2023-03-16T21:35:19.499Z,-1.61
2023-03-16T21:37:46.589Z,-1.61
2023-03-16T21:40:18.130Z,-1.60
2023-03-16T21:42:45.491Z,-1.56
2023-03-16T21:45:12.733Z,-1.55
2023-03-16T21:47:40.044Z,-1.54
2023-03-16T21:50:12.825Z,-1.53
2023-03-16T21:55:24.488Z,-1.54
2023-03-16T21:57:51.225Z,-1.57
2023-03-16T22:00:18.962Z,-1.56
2023-03-16T22:02:46.838Z,-1.59
2023-03-16T22:05:33.700Z,-1.60
2023-03-16T22:08:01.831Z,-1.56
2023-03-16T22:10:29.734Z,-1.54
2023-03-16T22:12:56.559Z,-1.53
2023-03-16T22:15:25.262Z,-1.53
2023-03-16T22:17:52.525Z,-1.57
2023-03-16T22:20:20.902Z,-1.57
2023-03-16T22:22:48.173Z,-1.60
2023-03-16T22:25:16.212Z,-1.61
2023-03-16T22:27:42.808Z,-1.60
2023-03-16T22:30:19.755Z,-1.58
2023-03-16T22:32:47.902Z,-1.60
2023-03-16T22:35:34.835Z,-1.59
2023-03-16T22:38:03.508Z,-1.57
2023-03-16T22:40:32.502Z,-1.61
2023-03-16T22:43:02.197Z,-1.60
2023-03-16T22:48:18.954Z,-1.59
2023-03-16T22:50:46.628Z,-1.60
2023-03-16T22:53:17.520Z,-1.62
2023-03-16T22:55:44.821Z,-1.64
2023-03-16T22:58:27.171Z,-1.65
2023-03-16T23:00:53.851Z,-1.64
2023-03-16T23:03:21.269Z,-1.67
2023-03-16T23:05:48.256Z,-1.68
2023-03-16T23:08:17.452Z,-1.71
2023-03-16T23:10:44.226Z,-1.71
2023-03-16T23:13:15.927Z,-1.77
2023-03-16T23:15:43.736Z,-1.78
2023-03-16T23:18:24.867Z,-1.81
2023-03-16T23:20:52.391Z,-1.83
2023-03-16T23:23:18.999Z,-1.84
2023-03-16T23:25:46.820Z,-1.88
2023-03-16T23:28:23.048Z,-1.83
2023-03-16T23:30:49.688Z,-1.87
2023-03-16T23:33:16.292Z,-1.88
2023-03-16T23:35:46.507Z,-1.91
2023-03-16T23:38:13.584Z,-1.89
2023-03-16T23:40:40.196Z,-1.91
2023-03-16T23:43:07.760Z,-1.95
2023-03-16T23:45:37.566Z,-1.98
2023-03-16T23:48:06.071Z,-2.00
2023-03-16T23:50:34.188Z,-2.04
2023-03-16T23:53:01.528Z,-2.07
2023-03-16T23:55:28.425Z,-2.09
2023-03-16T23:57:55.200Z,-2.10
